Time;durP1;ratioP1;P1;durP2;ratioP2;P2;SDS_P1;SDS_P2;PMS_P1;PMS_P2;Temp;Humidity;BMP_temperature;BMP_pressure;BME280_temperature;BME280_humidity;BME280_pressure;Samples;Min_cycle;Max_cycle;Signal;HPM_P1;HPM_P2
2021/06/06 00:03:31;;;;;;;;;;;11.80;99.90;;;;;;10582909;28;20006;-63
2021/06/06 00:08:33;;;;;;;;;;;11.90;99.90;;;;;;10572915;28;19955;-64
2021/06/06 00:13:34;;;;;;;;;;;11.70;99.90;;;;;;10586893;27;20290;-62
2021/06/06 00:18:37;;;;;;;;;;;11.70;99.90;;;;;;10577984;28;19959;-63
2021/06/06 00:23:38;;;;;;;;;;;11.70;99.90;;;;;;10558690;28;20102;-63
2021/06/06 00:28:39;;;;;;;;;;;11.60;99.90;;;;;;10577474;28;20018;-64
2021/06/06 00:33:42;;;;;;;;;;;11.60;99.90;;;;;;10570625;28;19963;-63
2021/06/06 00:38:43;;;;;;;;;;;11.50;99.90;;;;;;10575098;28;20007;-63
2021/06/06 00:43:44;;;;;;;;;;;11.50;99.90;;;;;;10575218;28;19928;-63
2021/06/06 00:48:47;;;;;;;;;;;11.50;99.90;;;;;;10565372;28;19982;-63
2021/06/06 00:53:50;;;;;;;;;;;11.40;99.90;;;;;;10564376;28;19988;-63
2021/06/06 00:58:51;;;;;;;;;;;11.40;99.90;;;;;;10577168;28;20014;-63
2021/06/06 01:03:55;;;;;;;;;;;11.40;99.90;;;;;;10573336;28;19928;-63
2021/06/06 01:08:57;;;;;;;;;;;11.40;99.90;;;;;;10554173;28;19924;-63
2021/06/06 01:13:59;;;;;;;;;;;11.40;99.90;;;;;;10579010;27;20102;-63
2021/06/06 01:19:04;;;;;;;;;;;11.40;99.90;;;;;;10575097;28;20392;-63
2021/06/06 01:24:18;;;;;;;;;;;11.40;99.90;;;;;;10570822;28;19967;-64
2021/06/06 01:29:24;;;;;;;;;;;11.40;99.90;;;;;;10576876;28;19927;-64
2021/06/06 01:34:27;;;;;;;;;;;11.40;99.90;;;;;;10578746;28;20022;-63
2021/06/06 01:39:31;;;;;;;;;;;11.30;99.90;;;;;;10571753;28;20022;-63
2021/06/06 01:44:34;;;;;;;;;;;11.30;99.90;;;;;;10574468;28;19923;-62
2021/06/06 01:49:40;;;;;;;;;;;11.30;99.90;;;;;;10564826;28;19973;-63
2021/06/06 01:54:42;;;;;;;;;;;11.30;99.90;;;;;;10570103;28;20396;-63
2021/06/06 01:59:45;;;;;;;;;;;11.30;99.90;;;;;;10566918;28;19971;-61
2021/06/06 02:04:47;;;;;;;;;;;11.30;99.90;;;;;;10577254;28;19971;-62
2021/06/06 02:09:51;;;;;;;;;;;9.60;99.90;;;;;;10572784;28;19962;-62
2021/06/06 02:14:53;;;;;;;;;;;11.20;99.90;;;;;;10583987;27;20323;-62
2021/06/06 02:19:54;;;;;;;;;;;11.10;99.90;;;;;;10577374;28;20047;-62
2021/06/06 02:24:57;;;;;;;;;;;10.60;99.90;;;;;;10570935;28;20026;-62
2021/06/06 02:30:00;;;;;;;;;;;11.10;99.90;;;;;;10573846;28;19932;-63
2021/06/06 02:35:05;;;;;;;;;;;11.10;99.90;;;;;;10579009;28;19968;-62
2021/06/06 02:40:12;;;;;;;;;;;11.10;99.90;;;;;;10577726;28;20018;-63
2021/06/06 02:45:17;;;;;;;;;;;11.10;99.90;;;;;;10570964;28;20372;-62
2021/06/06 02:50:20;;;;;;;;;;;10.60;99.90;;;;;;10554485;27;20459;-62
2021/06/06 02:55:23;;;;;;;;;;;11.00;99.90;;;;;;10577053;28;19959;-62
2021/06/06 03:00:28;;;;;;;;;;;11.00;99.90;;;;;;10562703;28;20012;-62
2021/06/06 03:05:30;;;;;;;;;;;10.90;99.90;;;;;;10572875;28;20281;-62
2021/06/06 03:10:34;;;;;;;;;;;11.00;99.90;;;;;;10572635;28;19959;-62
2021/06/06 03:15:37;;;;;;;;;;;11.00;99.90;;;;;;10572654;28;19931;-61
2021/06/06 03:20:40;;;;;;;;;;;11.00;99.90;;;;;;10573116;28;20581;-62
2021/06/06 03:25:44;;;;;;;;;;;11.00;99.90;;;;;;10569506;28;19978;-62
2021/06/06 03:30:46;;;;;;;;;;;11.00;99.90;;;;;;10562836;28;20004;-62
2021/06/06 03:35:48;;;;;;;;;;;11.00;99.90;;;;;;10576874;28;19923;-62
2021/06/06 03:40:50;;;;;;;;;;;11.00;99.90;;;;;;10576706;28;19928;-63
2021/06/06 03:45:51;;;;;;;;;;;11.00;99.90;;;;;;10574363;28;19923;-62
2021/06/06 03:50:53;;;;;;;;;;;11.00;99.90;;;;;;10572162;28;20296;-62
2021/06/06 03:55:55;;;;;;;;;;;11.10;99.90;;;;;;10571127;28;20276;-62
2021/06/06 04:00:56;;;;;;;;;;;11.10;99.90;;;;;;10548742;28;19966;-62
2021/06/06 04:05:57;;;;;;;;;;;11.10;99.90;;;;;;10569923;28;20631;-63
2021/06/06 04:11:00;;;;;;;;;;;11.40;99.90;;;;;;10582278;28;20010;-63
2021/06/06 04:16:02;;;;;;;;;;;12.00;99.90;;;;;;10584992;27;19923;-62
2021/06/06 04:21:03;;;;;;;;;;;13.00;99.90;;;;;;10583974;28;19923;-62
2021/06/06 04:26:06;;;;;;;;;;;14.90;99.90;;;;;;10564865;28;20322;-63
2021/06/06 04:31:09;;;;;;;;;;;17.10;99.90;;;;;;10581744;28;19970;-62
2021/06/06 04:36:10;;;;;;;;;;;18.80;97.50;;;;;;10576088;28;19932;-63
2021/06/06 04:41:14;;;;;;;;;;;19.80;93.30;;;;;;10577989;28;20319;-63
2021/06/06 04:46:15;;;;;;;;;;;20.80;89.70;;;;;;10581616;28;20022;-62
2021/06/06 04:51:19;;;;;;;;;;;21.80;83.60;;;;;;10574355;28;20023;-62
2021/06/06 04:56:23;;;;;;;;;;;22.60;76.40;;;;;;10571862;28;19963;-62
2021/06/06 05:01:24;;;;;;;;;;;23.40;72.10;;;;;;10572006;28;19953;-63
2021/06/06 05:06:25;;;;;;;;;;;24.00;66.40;;;;;;10582098;28;19924;-62
2021/06/06 05:11:28;;;;;;;;;;;24.30;62.40;;;;;;10580018;27;20384;-62
2021/06/06 05:16:29;;;;;;;;;;;25.20;59.60;;;;;;10567406;28;19934;-63
2021/06/06 05:21:31;;;;;;;;;;;25.80;56.40;;;;;;10578405;28;19931;-62
2021/06/06 05:26:34;;;;;;;;;;;26.20;53.50;;;;;;10565322;28;19924;-63
2021/06/06 05:31:35;;;;;;;;;;;26.90;51.00;;;;;;10578758;28;19932;-62
2021/06/06 05:36:37;;;;;;;;;;;27.20;48.60;;;;;;10580973;28;19923;-62
2021/06/06 05:41:40;;;;;;;;;;;27.70;46.50;;;;;;10570930;28;19924;-62
2021/06/06 05:46:41;;;;;;;;;;;28.00;44.80;;;;;;10573574;28;20287;-62
2021/06/06 05:51:42;;;;;;;;;;;28.70;42.70;;;;;;10566018;28;19924;-62
2021/06/06 05:56:45;;;;;;;;;;;29.20;42.30;;;;;;10583567;27;19931;-64
2021/06/06 06:01:46;;;;;;;;;;;29.80;40.90;;;;;;10570353;27;19966;-63
2021/06/06 06:06:47;;;;;;;;;;;31.10;40.20;;;;;;10569858;28;20006;-63
2021/06/06 06:11:50;;;;;;;;;;;31.70;38.80;;;;;;10580321;27;19923;-63
2021/06/06 06:16:51;;;;;;;;;;;31.80;37.60;;;;;;10577760;28;19924;-63
2021/06/06 06:21:52;;;;;;;;;;;31.80;36.90;;;;;;10575722;28;19924;-63
2021/06/06 06:26:55;;;;;;;;;;;32.30;36.80;;;;;;10563956;28;19924;-63
2021/06/06 06:31:57;;;;;;;;;;;32.80;35.40;;;;;;10572431;28;19930;-63
2021/06/06 06:36:58;;;;;;;;;;;33.20;35.20;;;;;;10578075;28;19924;-63
2021/06/06 06:42:01;;;;;;;;;;;33.40;34.30;;;;;;10567954;28;20247;-64
2021/06/06 06:47:02;;;;;;;;;;;33.40;33.80;;;;;;10556871;28;20010;-63
2021/06/06 06:52:04;;;;;;;;;;;33.50;32.30;;;;;;10570790;28;19928;-63
2021/06/06 06:57:06;;;;;;;;;;;33.30;32.50;;;;;;10562897;28;20409;-63
2021/06/06 07:02:07;;;;;;;;;;;33.80;32.10;;;;;;10562125;28;20014;-64
2021/06/06 07:07:09;;;;;;;;;;;33.50;31.90;;;;;;10567061;28;20406;-64
2021/06/06 07:12:11;;;;;;;;;;;33.90;32.10;;;;;;10555934;28;20027;-63
2021/06/06 07:17:13;;;;;;;;;;;34.20;31.10;;;;;;10571572;28;19927;-64
2021/06/06 07:22:14;;;;;;;;;;;33.50;31.40;;;;;;10567064;28;19984;-63
2021/06/06 07:27:16;;;;;;;;;;;33.20;31.00;;;;;;10572413;28;19951;-63
2021/06/06 07:32:17;;;;;;;;;;;32.40;31.50;;;;;;10573357;28;19930;-64
2021/06/06 07:37:19;;;;;;;;;;;32.90;31.70;;;;;;10553592;28;20078;-63
2021/06/06 07:42:22;;;;;;;;;;;32.60;31.40;;;;;;10564747;28;19924;-64
2021/06/06 07:47:23;;;;;;;;;;;32.50;31.90;;;;;;10567235;28;19932;-64
2021/06/06 07:52:24;;;;;;;;;;;32.50;31.30;;;;;;10577236;28;20026;-65
2021/06/06 07:57:27;;;;;;;;;;;32.40;31.80;;;;;;10582607;28;19923;-65
2021/06/06 08:02:28;;;;;;;;;;;31.70;30.90;;;;;;10582988;28;19954;-66
2021/06/06 08:07:30;;;;;;;;;;;31.00;31.90;;;;;;10582959;28;19927;-65
2021/06/06 08:12:32;;;;;;;;;;;30.90;32.50;;;;;;10579380;27;19928;-64
2021/06/06 08:17:34;;;;;;;;;;;30.80;32.00;;;;;;10571405;28;20761;-63
2021/06/06 08:22:35;;;;;;;;;;;30.00;32.40;;;;;;10580330;28;19938;-64
2021/06/06 08:27:37;;;;;;;;;;;29.90;32.90;;;;;;10579893;28;19928;-62
2021/06/06 08:32:38;;;;;;;;;;;30.20;33.30;;;;;;10564259;28;19980;-65
2021/06/06 08:37:39;;;;;;;;;;;30.50;32.80;;;;;;10566132;28;19930;-63
2021/06/06 08:42:44;;;;;;;;;;;30.20;32.20;;;;;;10582192;27;19972;-62
2021/06/06 08:47:45;;;;;;;;;;;29.70;32.20;;;;;;10574155;27;19932;-63
2021/06/06 08:52:49;;;;;;;;;;;29.40;32.40;;;;;;10565683;28;19923;-63
2021/06/06 08:57:55;;;;;;;;;;;28.90;32.70;;;;;;10567131;27;19924;-63
2021/06/06 09:02:58;;;;;;;;;;;29.00;32.90;;;;;;10561223;28;19975;-61
2021/06/06 09:08:00;;;;;;;;;;;29.50;32.60;;;;;;10562565;27;19940;-63
2021/06/06 09:13:04;;;;;;;;;;;30.10;32.00;;;;;;10584362;27;20010;-61
2021/06/06 09:18:16;;;;;;;;;;;30.40;31.00;;;;;;10580105;28;19960;-61
2021/06/06 09:23:22;;;;;;;;;;;30.10;30.70;;;;;;10576352;28;19924;-61
2021/06/06 09:28:26;;;;;;;;;;;29.70;31.40;;;;;;10560800;28;19931;-61
2021/06/06 09:33:28;;;;;;;;;;;29.80;30.90;;;;;;10579490;28;19969;-61
2021/06/06 09:38:34;;;;;;;;;;;29.70;32.00;;;;;;10566690;28;20034;-62
2021/06/06 09:43:37;;;;;;;;;;;29.70;30.90;;;;;;10579208;27;19967;-61
2021/06/06 09:48:41;;;;;;;;;;;29.00;31.40;;;;;;10574792;28;19928;-61
2021/06/06 09:53:43;;;;;;;;;;;29.80;30.00;;;;;;10574335;28;19923;-60
2021/06/06 09:58:46;;;;;;;;;;;29.50;30.00;;;;;;10569117;28;19927;-60
2021/06/06 10:03:51;;;;;;;;;;;29.20;30.50;;;;;;10565120;28;19930;-61
2021/06/06 10:09:13;;;;;;;;;;;29.30;31.40;;;;;;10569965;28;19924;-61
2021/06/06 10:14:15;;;;;;;;;;;29.60;31.10;;;;;;10571756;27;19978;-61
2021/06/06 10:19:21;;;;;;;;;;;29.70;30.10;;;;;;10545319;28;21888;-62
2021/06/06 10:24:25;;;;;;;;;;;29.30;30.80;;;;;;10575884;28;20295;-62
2021/06/06 10:29:30;;;;;;;;;;;27.50;30.00;;;;;;10572008;28;20014;-60
2021/06/06 10:34:34;;;;;;;;;;;29.30;30.60;;;;;;10555993;28;19930;-62
2021/06/06 10:39:37;;;;;;;;;;;28.20;30.60;;;;;;10565805;27;20030;-61
2021/06/06 10:44:47;;;;;;;;;;;28.90;31.80;;;;;;10567515;27;19980;-64
2021/06/06 10:49:51;;;;;;;;;;;29.00;31.20;;;;;;10568731;27;19993;-62
2021/06/06 10:54:54;;;;;;;;;;;29.20;30.80;;;;;;10571051;28;19943;-63
2021/06/06 11:00:17;;;;;;;;;;;28.80;31.00;;;;;;10570860;28;20431;-62
2021/06/06 11:05:24;;;;;;;;;;;28.90;31.00;;;;;;10573827;28;19927;-61
2021/06/06 11:10:32;;;;;;;;;;;29.20;31.40;;;;;;10572446;28;20340;-62
2021/06/06 11:15:36;;;;;;;;;;;29.20;31.60;;;;;;10576948;28;20094;-62
2021/06/06 11:20:49;;;;;;;;;;;29.40;31.70;;;;;;10580413;28;20022;-61
2021/06/06 11:25:51;;;;;;;;;;;29.50;31.30;;;;;;10568214;27;19959;-67
2021/06/06 11:30:54;;;;;;;;;;;29.40;32.20;;;;;;10581281;28;19935;-67
2021/06/06 11:35:57;;;;;;;;;;;29.40;31.70;;;;;;10580517;28;19966;-67
2021/06/06 11:41:06;;;;;;;;;;;29.30;32.20;;;;;;10575325;28;20448;-66
2021/06/06 11:46:15;;;;;;;;;;;29.30;32.40;;;;;;10586363;27;19923;-69
2021/06/06 11:51:23;;;;;;;;;;;29.20;32.30;;;;;;10573943;28;20022;-66
2021/06/06 11:56:27;;;;;;;;;;;28.80;33.00;;;;;;10569658;27;19924;-66
2021/06/06 12:01:30;;;;;;;;;;;28.40;33.30;;;;;;10577423;27;19972;-66
2021/06/06 12:06:31;;;;;;;;;;;28.30;34.10;;;;;;10575094;28;20046;-66
2021/06/06 12:11:34;;;;;;;;;;;28.40;34.40;;;;;;10571300;28;20621;-66
2021/06/06 12:16:36;;;;;;;;;;;28.40;33.90;;;;;;10569239;28;20265;-66
2021/06/06 12:21:38;;;;;;;;;;;27.70;33.50;;;;;;10573748;28;20043;-67
2021/06/06 12:26:41;;;;;;;;;;;28.80;33.80;;;;;;10570350;28;19938;-66
2021/06/06 12:31:44;;;;;;;;;;;28.50;33.30;;;;;;10574590;28;19963;-67
2021/06/06 12:36:46;;;;;;;;;;;28.50;33.80;;;;;;10576302;28;20015;-67
2021/06/06 12:41:48;;;;;;;;;;;28.10;33.60;;;;;;10584597;27;20015;-67
2021/06/06 12:46:52;;;;;;;;;;;28.30;32.90;;;;;;10578191;27;19930;-67
2021/06/06 12:51:53;;;;;;;;;;;27.80;33.40;;;;;;10576859;28;20476;-66
2021/06/06 12:57:04;;;;;;;;;;;27.70;34.40;;;;;;10576462;28;20494;-66
2021/06/06 13:02:11;;;;;;;;;;;27.80;35.10;;;;;;10568350;28;20378;-66
2021/06/06 13:07:21;;;;;;;;;;;27.80;34.20;;;;;;10572521;28;19924;-68
2021/06/06 13:12:24;;;;;;;;;;;27.50;34.70;;;;;;10567611;28;19967;-66
2021/06/06 13:17:30;;;;;;;;;;;27.30;34.70;;;;;;10573874;28;19924;-68
2021/06/06 13:22:31;;;;;;;;;;;27.00;35.50;;;;;;10570220;28;19953;-67
2021/06/06 13:27:35;;;;;;;;;;;26.20;36.30;;;;;;10576255;28;19963;-68
2021/06/06 13:32:37;;;;;;;;;;;26.90;36.80;;;;;;10572314;28;19928;-67
2021/06/06 13:37:39;;;;;;;;;;;27.20;36.50;;;;;;10565798;28;19927;-67
2021/06/06 13:42:40;;;;;;;;;;;27.30;36.50;;;;;;10577306;27;19952;-67
2021/06/06 13:47:42;;;;;;;;;;;27.50;36.20;;;;;;10572510;28;20405;-67
2021/06/06 13:52:44;;;;;;;;;;;25.40;34.70;;;;;;10572268;28;19979;-68
2021/06/06 13:57:45;;;;;;;;;;;25.00;35.10;;;;;;10563172;28;19932;-67
2021/06/06 14:02:48;;;;;;;;;;;26.60;37.40;;;;;;10574066;28;19928;-66
2021/06/06 14:07:49;;;;;;;;;;;26.70;37.10;;;;;;10564096;28;20011;-67
2021/06/06 14:12:51;;;;;;;;;;;26.30;37.40;;;;;;10572657;28;19971;-67
2021/06/06 14:17:53;;;;;;;;;;;26.20;37.40;;;;;;10574865;28;19931;-67
2021/06/06 14:22:55;;;;;;;;;;;26.00;37.40;;;;;;10572905;28;19924;-67
2021/06/06 14:27:56;;;;;;;;;;;24.50;37.40;;;;;;10572629;27;19931;-66
2021/06/06 14:32:59;;;;;;;;;;;25.40;38.60;;;;;;10571935;28;19927;-67
2021/06/06 14:38:00;;;;;;;;;;;25.20;39.60;;;;;;10567262;28;20408;-67
2021/06/06 14:43:02;;;;;;;;;;;24.80;39.80;;;;;;10569152;28;20386;-67
2021/06/06 14:48:05;;;;;;;;;;;23.80;40.10;;;;;;10573186;28;20015;-67
2021/06/06 14:53:07;;;;;;;;;;;25.00;40.40;;;;;;10573129;28;19928;-67
2021/06/06 14:58:09;;;;;;;;;;;24.60;40.40;;;;;;10575104;28;20056;-67
2021/06/06 15:03:11;;;;;;;;;;;24.00;42.00;;;;;;10576008;28;19924;-69
2021/06/06 15:08:13;;;;;;;;;;;23.90;43.30;;;;;;10577604;28;19924;-67
2021/06/06 15:13:16;;;;;;;;;;;23.10;43.30;;;;;;10575673;28;19924;-67
2021/06/06 15:18:20;;;;;;;;;;;24.20;42.40;;;;;;10573105;28;19951;-67
2021/06/06 15:23:22;;;;;;;;;;;23.60;43.80;;;;;;10574075;28;19924;-67
2021/06/06 15:28:24;;;;;;;;;;;23.30;43.20;;;;;;10575574;28;19927;-68
2021/06/06 15:33:27;;;;;;;;;;;22.90;43.90;;;;;;10570521;28;19927;-67
2021/06/06 15:38:30;;;;;;;;;;;22.70;44.60;;;;;;10572530;28;19971;-67
2021/06/06 15:43:32;;;;;;;;;;;22.70;44.90;;;;;;10565687;28;19923;-67
2021/06/06 15:48:35;;;;;;;;;;;22.80;45.30;;;;;;10564462;28;19935;-68
2021/06/06 15:53:36;;;;;;;;;;;22.90;45.10;;;;;;10569881;28;19924;-67
2021/06/06 15:58:37;;;;;;;;;;;22.90;45.20;;;;;;10572363;28;19966;-68
2021/06/06 16:03:41;;;;;;;;;;;22.70;45.20;;;;;;10572999;28;20360;-67
2021/06/06 16:08:42;;;;;;;;;;;22.30;45.90;;;;;;10577454;28;19924;-68
2021/06/06 16:13:43;;;;;;;;;;;22.00;45.50;;;;;;10579432;27;20014;-68
2021/06/06 16:18:46;;;;;;;;;;;21.70;46.70;;;;;;10571124;28;20025;-68
2021/06/06 16:23:47;;;;;;;;;;;23.40;47.80;;;;;;10570034;28;20003;-68
2021/06/06 16:28:49;;;;;;;;;;;21.50;46.90;;;;;;10575265;28;20015;-68
2021/06/06 16:33:51;;;;;;;;;;;21.30;48.10;;;;;;10569676;28;19977;-69
2021/06/06 16:38:53;;;;;;;;;;;20.90;46.60;;;;;;10572906;28;20389;-68
2021/06/06 16:43:54;;;;;;;;;;;20.90;47.60;;;;;;10577744;28;19967;-68
2021/06/06 16:48:56;;;;;;;;;;;20.80;48.20;;;;;;10573084;28;19924;-68
2021/06/06 16:53:58;;;;;;;;;;;20.80;48.20;;;;;;10558085;28;19932;-67
2021/06/06 16:58:59;;;;;;;;;;;20.80;49.10;;;;;;10571878;28;19932;-70
2021/06/06 17:04:02;;;;;;;;;;;20.60;49.50;;;;;;10580821;28;19928;-71
2021/06/06 17:09:04;;;;;;;;;;;20.40;50.30;;;;;;10580227;27;19928;-70
2021/06/06 17:14:06;;;;;;;;;;;20.30;51.60;;;;;;10572137;28;19932;-71
2021/06/06 17:19:19;;;;;;;;;;;20.10;52.20;;;;;;10575981;28;19981;-72
2021/06/06 17:24:20;;;;;;;;;;;19.90;52.30;;;;;;10572047;28;20003;-75
2021/06/06 17:29:22;;;;;;;;;;;19.70;53.00;;;;;;10576352;28;19924;-72
2021/06/06 17:34:25;;;;;;;;;;;19.60;53.40;;;;;;10575463;28;19924;-71
2021/06/06 17:39:26;;;;;;;;;;;19.60;53.80;;;;;;10576587;28;19928;-70
2021/06/06 17:44:27;;;;;;;;;;;19.40;53.70;;;;;;10575272;28;20372;-72
2021/06/06 17:49:30;;;;;;;;;;;19.20;54.40;;;;;;10568747;27;20006;-73
2021/06/06 17:54:31;;;;;;;;;;;19.00;55.10;;;;;;10559252;28;20040;-74
2021/06/06 17:59:32;;;;;;;;;;;18.70;56.00;;;;;;10566081;28;19924;-70
2021/06/06 18:04:35;;;;;;;;;;;18.70;56.90;;;;;;10577681;28;20005;-70
2021/06/06 18:09:36;;;;;;;;;;;18.60;57.70;;;;;;10572599;28;19976;-77
2021/06/06 18:14:38;;;;;;;;;;;18.50;57.40;;;;;;10575519;28;20006;-73
2021/06/06 18:19:43;;;;;;;;;;;18.30;58.20;;;;;;10578091;27;20078;-64
2021/06/06 18:24:45;;;;;;;;;;;18.10;58.90;;;;;;10569668;27;20329;-64
2021/06/06 18:29:46;;;;;;;;;;;18.00;58.90;;;;;;10571145;28;19987;-64
2021/06/06 18:34:48;;;;;;;;;;;17.80;59.90;;;;;;10571001;28;19924;-66
2021/06/06 18:39:50;;;;;;;;;;;17.60;60.80;;;;;;10574870;28;20404;-71
2021/06/06 18:44:56;;;;;;;;;;;17.50;60.60;;;;;;10574451;28;20297;-72
2021/06/06 18:49:59;;;;;;;;;;;17.30;60.60;;;;;;10558229;28;20517;-70
2021/06/06 18:55:00;;;;;;;;;;;17.10;61.10;;;;;;10573849;28;20390;-71
2021/06/06 19:00:03;;;;;;;;;;;17.00;62.50;;;;;;10574046;28;19960;-72
2021/06/06 19:05:06;;;;;;;;;;;16.90;63.30;;;;;;10570369;28;20542;-70
2021/06/06 19:10:08;;;;;;;;;;;16.80;63.10;;;;;;10567877;28;20297;-71
2021/06/06 19:15:09;;;;;;;;;;;16.60;64.20;;;;;;10567885;28;19923;-71
2021/06/06 19:20:14;;;;;;;;;;;16.50;65.20;;;;;;10570061;28;19990;-71
2021/06/06 19:25:16;;;;;;;;;;;16.40;66.80;;;;;;10570245;28;19931;-71
2021/06/06 19:30:20;;;;;;;;;;;16.30;68.40;;;;;;10574519;28;19928;-71
2021/06/06 19:35:24;;;;;;;;;;;16.20;69.80;;;;;;10571132;28;19934;-71
2021/06/06 19:40:25;;;;;;;;;;;16.10;71.20;;;;;;10579692;28;19965;-70
2021/06/06 19:45:27;;;;;;;;;;;15.90;72.90;;;;;;10587261;27;19988;-71
2021/06/06 19:50:30;;;;;;;;;;;15.80;75.20;;;;;;10576674;28;19951;-70
2021/06/06 19:55:32;;;;;;;;;;;15.60;76.90;;;;;;10578686;28;19924;-70
2021/06/06 20:00:35;;;;;;;;;;;15.50;79.20;;;;;;10581346;28;20332;-69
2021/06/06 20:05:39;;;;;;;;;;;15.40;81.20;;;;;;10580972;28;20023;-70
2021/06/06 20:10:41;;;;;;;;;;;15.20;83.60;;;;;;10582072;28;19930;-70
2021/06/06 20:15:44;;;;;;;;;;;15.20;85.20;;;;;;10574588;28;19953;-70
2021/06/06 20:20:47;;;;;;;;;;;15.10;87.20;;;;;;10573859;27;19939;-71
2021/06/06 20:25:49;;;;;;;;;;;15.00;89.30;;;;;;10577841;28;20368;-71
2021/06/06 20:30:51;;;;;;;;;;;14.80;91.20;;;;;;10577359;28;21643;-71
2021/06/06 20:35:53;;;;;;;;;;;14.70;92.50;;;;;;10581474;28;19927;-71
2021/06/06 20:40:57;;;;;;;;;;;14.60;94.00;;;;;;10577691;28;19935;-71
2021/06/06 20:46:00;;;;;;;;;;;14.50;95.30;;;;;;10581048;28;19980;-72
2021/06/06 20:51:02;;;;;;;;;;;14.50;96.50;;;;;;10578378;28;19928;-71
2021/06/06 20:56:04;;;;;;;;;;;14.40;97.20;;;;;;10582733;28;19976;-71
2021/06/06 21:01:05;;;;;;;;;;;14.40;97.70;;;;;;10574947;28;20084;-71
2021/06/06 21:06:10;;;;;;;;;;;14.30;97.80;;;;;;10581967;28;19972;-71
2021/06/06 21:11:12;;;;;;;;;;;14.20;98.50;;;;;;10570274;28;19923;-71
2021/06/06 21:16:14;;;;;;;;;;;14.10;99.50;;;;;;10572333;28;20253;-70
2021/06/06 21:21:17;;;;;;;;;;;14.10;99.90;;;;;;10575071;28;19928;-70
2021/06/06 21:26:18;;;;;;;;;;;14.00;99.90;;;;;;10563237;28;20014;-71
2021/06/06 21:31:21;;;;;;;;;;;14.00;99.90;;;;;;10567818;28;20239;-70
2021/06/06 21:36:24;;;;;;;;;;;13.90;99.90;;;;;;10576964;28;19928;-71
2021/06/06 21:41:27;;;;;;;;;;;13.90;99.90;;;;;;10558315;28;19978;-71
2021/06/06 21:46:28;;;;;;;;;;;13.80;99.90;;;;;;10548609;27;19927;-71
2021/06/06 21:51:31;;;;;;;;;;;13.80;99.90;;;;;;10572768;27;20403;-71
2021/06/06 21:56:32;;;;;;;;;;;13.70;99.90;;;;;;10571004;28;19928;-71
2021/06/06 22:01:34;;;;;;;;;;;13.70;99.90;;;;;;10564653;28;19927;-70
2021/06/06 22:06:37;;;;;;;;;;;13.60;99.90;;;;;;10566299;28;19947;-71
2021/06/06 22:11:39;;;;;;;;;;;13.50;99.90;;;;;;10572126;28;19930;-71
2021/06/06 22:16:40;;;;;;;;;;;13.50;99.90;;;;;;10553044;28;19970;-71
2021/06/06 22:22:00;;;;;;;;;;;13.50;99.90;;;;;;10551090;28;20370;-70
2021/06/06 22:27:20;;;;;;;;;;;13.40;99.90;;;;;;10572696;28;19928;-70
2021/06/06 22:32:40;;;;;;;;;;;11.30;99.90;;;;;;10560138;28;20038;-69
2021/06/06 22:37:59;;;;;;;;;;;13.30;99.90;;;;;;10554827;28;20361;-69
2021/06/06 22:43:19;;;;;;;;;;;13.30;99.90;;;;;;10572901;28;19928;-69
2021/06/06 22:48:38;;;;;;;;;;;13.20;99.90;;;;;;10567664;28;20285;-69
2021/06/06 22:53:58;;;;;;;;;;;13.20;99.90;;;;;;10575431;28;20382;-69
2021/06/06 22:59:17;;;;;;;;;;;13.10;99.90;;;;;;10555241;28;19928;-69
2021/06/06 23:04:37;;;;;;;;;;;13.00;99.90;;;;;;10558109;28;19956;-69
2021/06/06 23:09:56;;;;;;;;;;;13.00;99.90;;;;;;10557887;28;19931;-69
2021/06/06 23:14:57;;;;;;;;;;;13.00;99.90;;;;;;10559570;28;20034;-70
2021/06/06 23:20:00;;;;;;;;;;;12.90;99.90;;;;;;10570758;28;19976;-69
2021/06/06 23:25:04;;;;;;;;;;;12.90;99.90;;;;;;10573638;28;20018;-69
2021/06/06 23:30:06;;;;;;;;;;;12.80;99.90;;;;;;10575915;28;19927;-70
2021/06/06 23:35:09;;;;;;;;;;;12.80;99.90;;;;;;10577074;28;19971;-70
2021/06/06 23:40:12;;;;;;;;;;;12.70;99.90;;;;;;10577227;28;20110;-70
2021/06/06 23:45:13;;;;;;;;;;;12.70;99.90;;;;;;10568858;28;20023;-69
2021/06/06 23:50:16;;;;;;;;;;;12.70;99.90;;;;;;10563025;28;19924;-70
2021/06/06 23:55:17;;;;;;;;;;;12.60;99.90;;;;;;10572263;28;20346;-70
